createdAt,value
2018-05-17T00:01:17.196Z,101150.74
2018-05-17T00:03:44.817Z,101154.00
2018-05-17T00:06:12.393Z,101148.45
2018-05-17T00:08:40.018Z,101158.32
2018-05-17T00:11:07.639Z,101151.00
2018-05-17T00:13:35.499Z,101144.81
2018-05-17T00:16:03.562Z,101150.86
2018-05-17T00:18:31.193Z,101149.88
2018-05-17T00:20:59.260Z,101158.48
2018-05-17T00:23:26.910Z,101159.00
2018-05-17T00:25:55.061Z,101159.53
2018-05-17T00:28:22.639Z,101166.80
2018-05-17T00:30:50.211Z,101164.56
2018-05-17T00:33:17.820Z,101165.45
2018-05-17T00:35:45.475Z,101165.77
2018-05-17T00:38:13.057Z,101165.48
2018-05-17T00:40:40.637Z,101166.16
2018-05-17T00:43:08.243Z,101175.59
2018-05-17T00:45:35.854Z,101174.72
2018-05-17T00:48:03.428Z,101177.03
2018-05-17T00:50:31.044Z,101174.80
2018-05-17T00:53:10.484Z,101166.71
2018-05-17T00:55:38.068Z,101168.72
2018-05-17T00:58:05.704Z,101163.56
2018-05-17T01:00:33.937Z,101154.31
2018-05-17T01:03:01.544Z,101151.66
2018-05-17T01:05:29.310Z,101157.86
2018-05-17T01:07:56.885Z,101154.78
2018-05-17T01:10:24.864Z,101153.81
2018-05-17T01:12:52.603Z,101159.05
2018-05-17T01:15:20.226Z,101162.67
2018-05-17T01:17:47.814Z,101166.38
2018-05-17T01:20:15.537Z,101165.02
2018-05-17T01:22:43.341Z,101159.73
2018-05-17T01:25:11.121Z,101166.09
2018-05-17T01:27:38.931Z,101165.45
2018-05-17T01:30:06.627Z,101165.02
2018-05-17T01:32:34.221Z,101162.52
2018-05-17T01:35:01.910Z,101169.67
2018-05-17T01:37:41.257Z,101166.52
2018-05-17T01:40:08.865Z,101173.33
2018-05-17T01:42:36.502Z,101175.48
2018-05-17T01:45:04.089Z,101170.05
2018-05-17T01:47:32.034Z,101178.31
2018-05-17T01:50:00.249Z,101168.48
2018-05-17T01:52:27.865Z,101167.95
2018-05-17T01:54:55.621Z,101171.80
2018-05-17T01:57:23.247Z,101161.45
2018-05-17T01:59:50.830Z,101161.56
2018-05-17T02:02:18.459Z,101163.97
2018-05-17T02:04:46.078Z,101160.88
2018-05-17T02:07:13.653Z,101167.64
2018-05-17T02:09:41.266Z,101167.55
2018-05-17T02:12:08.873Z,101168.67
2018-05-17T02:14:36.481Z,101166.83
2018-05-17T02:17:04.069Z,101172.48
2018-05-17T02:19:31.693Z,101164.58
2018-05-17T02:21:59.273Z,101163.06
2018-05-17T02:24:27.669Z,101163.30
2018-05-17T02:26:55.999Z,101162.32
2018-05-17T02:29:23.616Z,101166.94
2018-05-17T02:31:51.190Z,101159.51
2018-05-17T02:34:18.809Z,101162.75
2018-05-17T02:36:46.397Z,101163.72
2018-05-17T02:39:14.031Z,101167.02
2018-05-17T02:41:41.650Z,101169.36
2018-05-17T02:44:09.243Z,101158.11
2018-05-17T02:46:36.857Z,101163.77
2018-05-17T02:49:04.534Z,101164.61
2018-05-17T02:51:32.096Z,101162.31
2018-05-17T02:53:59.804Z,101154.29
2018-05-17T02:56:27.421Z,101163.02
2018-05-17T02:58:55.040Z,101158.25
2018-05-17T03:01:22.664Z,101154.84
2018-05-17T03:03:50.260Z,101154.24
2018-05-17T03:06:17.915Z,101157.75
2018-05-17T03:08:45.530Z,101152.66
2018-05-17T03:11:13.113Z,101148.14
2018-05-17T03:13:40.717Z,101155.14
2018-05-17T03:16:08.345Z,101143.20
2018-05-17T03:18:36.502Z,101148.53
2018-05-17T03:21:04.125Z,101151.95
2018-05-17T03:23:31.729Z,101147.93
2018-05-17T03:25:59.352Z,101151.66
2018-05-17T03:28:26.941Z,101153.61
2018-05-17T03:30:54.797Z,101155.48
2018-05-17T03:33:22.385Z,101154.24
2018-05-17T03:35:50.240Z,101154.20
2018-05-17T03:38:17.851Z,101156.58
2018-05-17T03:40:45.936Z,101154.73
2018-05-17T03:43:13.565Z,101158.30
2018-05-17T03:45:41.193Z,101151.27
2018-05-17T03:48:08.828Z,101154.52
2018-05-17T03:50:36.401Z,101158.28
2018-05-17T03:53:04.022Z,101151.86
2018-05-17T03:55:31.632Z,101158.09
2018-05-17T03:57:59.209Z,101154.24
2018-05-17T04:03:40.408Z,101153.77
2018-05-17T04:06:19.556Z,101150.26
2018-05-17T04:08:47.218Z,101155.25
2018-05-17T04:11:14.801Z,101162.66
2018-05-17T04:13:42.589Z,101152.55
2018-05-17T04:16:10.350Z,101155.80
2018-05-17T04:18:37.945Z,101155.19
2018-05-17T04:21:05.601Z,101153.11
2018-05-17T04:23:33.231Z,101155.23
2018-05-17T04:26:01.072Z,101155.91
2018-05-17T04:28:28.739Z,101163.33
2018-05-17T04:30:56.327Z,101163.59
2018-05-17T04:33:23.947Z,101160.71
2018-05-17T04:35:52.011Z,101159.05
2018-05-17T04:38:19.649Z,101157.70
2018-05-17T04:40:47.281Z,101152.08
2018-05-17T04:43:15.557Z,101153.08
2018-05-17T04:45:43.218Z,101152.23
2018-05-17T04:48:11.834Z,101158.23
2018-05-17T04:50:39.417Z,101143.88
2018-05-17T04:53:07.112Z,101145.48
2018-05-17T04:55:35.252Z,101143.88
2018-05-17T04:58:03.017Z,101147.23
2018-05-17T05:00:31.190Z,101145.06
2018-05-17T05:02:58.832Z,101141.47
2018-05-17T05:05:26.736Z,101145.84
2018-05-17T05:07:58.234Z,101143.94
2018-05-17T05:10:26.373Z,101146.33
2018-05-17T05:12:53.968Z,101150.52
2018-05-17T05:15:21.559Z,101158.92
2018-05-17T05:17:49.338Z,101153.31
2018-05-17T05:20:16.916Z,101150.15
2018-05-17T05:22:44.740Z,101156.60
2018-05-17T05:25:13.332Z,101152.86
2018-05-17T05:27:40.939Z,101153.31
2018-05-17T05:30:09.154Z,101155.13
2018-05-17T05:32:36.905Z,101158.41
2018-05-17T05:35:04.530Z,101160.50
2018-05-17T05:37:32.302Z,101164.43
2018-05-17T05:40:00.015Z,101167.19
2018-05-17T05:42:27.648Z,101166.87
2018-05-17T05:44:56.169Z,101171.00
2018-05-17T05:47:23.758Z,101168.84
2018-05-17T05:49:51.689Z,101166.26
2018-05-17T05:52:19.448Z,101173.95
2018-05-17T05:54:47.103Z,101170.31
2018-05-17T05:57:14.976Z,101181.31
2018-05-17T05:59:42.639Z,101179.30
2018-05-17T06:02:10.405Z,101175.53
2018-05-17T06:04:38.264Z,101180.69
2018-05-17T06:07:06.050Z,101182.73
2018-05-17T06:09:33.632Z,101175.33
2018-05-17T06:12:01.551Z,101174.11
2018-05-17T06:14:29.202Z,101177.28
2018-05-17T06:16:56.799Z,101181.21
2018-05-17T06:19:24.689Z,101188.43
2018-05-17T06:21:52.317Z,101195.23
2018-05-17T06:24:20.058Z,101182.61
2018-05-17T06:26:47.679Z,101190.15
2018-05-17T06:29:15.330Z,101196.22
2018-05-17T06:31:42.949Z,101192.80
2018-05-17T06:34:10.545Z,101190.63
2018-05-17T06:36:38.220Z,101192.89
2018-05-17T06:39:06.790Z,101190.44
2018-05-17T06:41:34.432Z,101196.38
2018-05-17T06:44:02.022Z,101193.22
2018-05-17T06:46:29.652Z,101195.95
2018-05-17T06:48:57.248Z,101200.69
2018-05-17T06:51:25.446Z,101194.21
2018-05-17T06:53:53.081Z,101200.92
2018-05-17T06:56:20.733Z,101205.91
2018-05-17T06:58:48.371Z,101194.95
2018-05-17T07:01:15.974Z,101197.38
2018-05-17T07:03:43.608Z,101202.45
2018-05-17T07:06:11.193Z,101201.41
2018-05-17T07:08:38.809Z,101209.48
2018-05-17T07:11:06.394Z,101200.48
2018-05-17T07:13:34.005Z,101204.39
2018-05-17T07:16:01.600Z,101200.36
2018-05-17T07:18:29.387Z,101200.47
2018-05-17T07:20:56.828Z,101202.83
2018-05-17T07:23:24.463Z,101205.59
2018-05-17T07:25:52.108Z,101206.52
2018-05-17T07:28:19.700Z,101207.13
2018-05-17T07:30:47.324Z,101206.42
2018-05-17T07:33:15.131Z,101209.72
2018-05-17T07:35:42.823Z,101208.00
2018-05-17T07:38:18.158Z,101221.62
2018-05-17T07:40:46.022Z,101208.05
2018-05-17T07:43:13.800Z,101213.69
2018-05-17T07:45:41.620Z,101222.95
2018-05-17T07:48:09.365Z,101215.02
2018-05-17T07:50:36.990Z,101217.16
2018-05-17T07:53:04.600Z,101213.66
2018-05-17T07:55:32.559Z,101217.62
2018-05-17T07:58:00.173Z,101222.14
2018-05-17T08:00:27.791Z,101220.94
2018-05-17T08:02:55.416Z,101220.52
2018-05-17T08:05:23.038Z,101216.58
2018-05-17T08:07:50.616Z,101218.91
2018-05-17T08:10:18.240Z,101219.83
2018-05-17T08:12:46.491Z,101218.69
2018-05-17T08:15:14.330Z,101219.63
2018-05-17T08:17:41.919Z,101219.20
2018-05-17T08:20:09.553Z,101218.30
2018-05-17T08:22:37.154Z,101216.36
2018-05-17T08:25:04.774Z,101214.92
2018-05-17T08:27:32.353Z,101220.27
2018-05-17T08:29:59.961Z,101226.91
2018-05-17T08:32:27.572Z,101230.14
2018-05-17T08:34:55.161Z,101222.77
2018-05-17T08:37:22.827Z,101219.98
2018-05-17T08:39:50.414Z,101222.58
2018-05-17T08:42:18.057Z,101228.67
2018-05-17T08:44:45.642Z,101234.17
2018-05-17T08:47:13.831Z,101244.50
2018-05-17T08:49:41.470Z,101234.63
2018-05-17T08:52:09.528Z,101231.73
2018-05-17T08:54:37.848Z,101233.33
2018-05-17T08:57:05.647Z,101243.37
2018-05-17T08:59:33.404Z,101243.14
2018-05-17T09:02:00.981Z,101244.34
2018-05-17T09:04:29.405Z,101243.27
2018-05-17T09:06:56.994Z,101248.56
2018-05-17T09:09:24.766Z,101254.85
2018-05-17T09:11:53.483Z,101251.94
2018-05-17T09:14:21.061Z,101257.91
2018-05-17T09:16:48.665Z,101258.10
2018-05-17T09:19:16.741Z,101251.67
2018-05-17T09:24:35.285Z,101256.72
2018-05-17T09:27:02.874Z,101263.75
2018-05-17T09:29:30.493Z,101255.72
2018-05-17T09:31:58.112Z,101264.02
2018-05-17T09:34:25.693Z,101260.83
2018-05-17T09:36:53.319Z,101253.71
2018-05-17T09:39:20.998Z,101255.05
2018-05-17T09:41:48.577Z,101253.23
2018-05-17T09:44:16.307Z,101266.42
2018-05-17T09:46:43.925Z,101263.55
2018-05-17T09:49:11.500Z,101274.19
2018-05-17T09:51:39.134Z,101272.08
2018-05-17T09:54:06.728Z,101272.59
2018-05-17T09:56:34.576Z,101264.43
2018-05-17T09:59:02.740Z,101262.59
2018-05-17T10:01:30.432Z,101275.27
2018-05-17T10:03:58.076Z,101267.97
2018-05-17T10:06:25.679Z,101271.27
2018-05-17T10:08:53.311Z,101260.89
2018-05-17T10:11:21.513Z,101256.22
2018-05-17T10:13:49.142Z,101254.53
2018-05-17T10:16:16.724Z,101264.55
2018-05-17T10:18:44.768Z,101254.45
2018-05-17T10:21:12.361Z,101251.20
2018-05-17T10:23:40.557Z,101254.88
2018-05-17T10:26:08.196Z,101253.80
2018-05-17T10:28:35.834Z,101267.94
2018-05-17T10:31:03.448Z,101267.55
2018-05-17T10:33:31.091Z,101266.75
2018-05-17T10:35:58.789Z,101266.80
2018-05-17T10:38:26.372Z,101267.80
2018-05-17T10:40:54.005Z,101266.34
2018-05-17T10:43:21.581Z,101261.39
2018-05-17T10:45:49.162Z,101264.25
2018-05-17T10:48:16.786Z,101267.64
2018-05-17T10:50:44.401Z,101271.17
2018-05-17T10:53:11.995Z,101271.72
2018-05-17T10:55:40.209Z,101269.29
2018-05-17T10:58:07.795Z,101271.40
2018-05-17T11:00:35.468Z,101272.63
2018-05-17T11:03:03.777Z,101266.50
2018-05-17T11:05:32.053Z,101269.22
2018-05-17T11:07:59.669Z,101277.09
2018-05-17T11:10:27.851Z,101273.45
2018-05-17T11:12:55.743Z,101276.80
2018-05-17T11:15:23.396Z,101283.02
2018-05-17T11:17:51.270Z,101271.22
2018-05-17T11:20:18.889Z,101276.20
2018-05-17T11:22:46.507Z,101277.28
2018-05-17T11:25:14.097Z,101280.50
2018-05-17T11:27:41.737Z,101278.06
2018-05-17T11:30:09.382Z,101278.63
2018-05-17T11:32:37.661Z,101279.54
2018-05-17T11:35:05.281Z,101276.11
2018-05-17T11:37:32.901Z,101278.27
2018-05-17T11:40:00.486Z,101279.26
2018-05-17T11:42:28.101Z,101280.94
2018-05-17T11:44:55.917Z,101282.75
2018-05-17T11:47:23.537Z,101269.94
2018-05-17T11:49:51.117Z,101274.83
2018-05-17T11:52:18.708Z,101272.61
2018-05-17T11:54:46.496Z,101275.66
2018-05-17T11:57:14.125Z,101280.32
2018-05-17T11:59:41.965Z,101273.25
2018-05-17T12:02:09.997Z,101275.16
2018-05-17T12:04:37.620Z,101272.58
2018-05-17T12:07:05.203Z,101267.52
2018-05-17T12:09:32.781Z,101276.75
2018-05-17T12:12:01.142Z,101271.29
2018-05-17T12:14:28.733Z,101278.15
2018-05-17T12:16:56.369Z,101275.92
2018-05-17T12:19:24.034Z,101275.30
2018-05-17T12:21:51.650Z,101279.08
2018-05-17T12:24:19.295Z,101284.54
2018-05-17T12:26:46.880Z,101281.39
2018-05-17T12:29:14.465Z,101284.72
2018-05-17T12:31:42.184Z,101278.81
2018-05-17T12:34:09.757Z,101275.83
2018-05-17T12:36:37.344Z,101287.13
2018-05-17T12:39:06.729Z,101279.27
2018-05-17T12:41:34.370Z,101286.27
2018-05-17T12:44:01.949Z,101283.91
2018-05-17T12:46:29.524Z,101288.94
2018-05-17T12:48:57.154Z,101282.39
2018-05-17T12:51:24.778Z,101284.87
2018-05-17T12:53:52.503Z,101287.19
2018-05-17T12:56:20.073Z,101291.80
2018-05-17T12:58:47.821Z,101290.94
2018-05-17T13:01:15.417Z,101293.28
2018-05-17T13:03:43.053Z,101302.89
2018-05-17T13:06:10.637Z,101302.88
2018-05-17T13:08:38.268Z,101297.77
2018-05-17T13:11:05.887Z,101297.70
2018-05-17T13:13:33.763Z,101293.65
2018-05-17T13:16:01.970Z,101283.20
2018-05-17T13:18:29.587Z,101292.38
2018-05-17T13:20:57.825Z,101286.15
2018-05-17T13:23:26.013Z,101284.00
2018-05-17T13:25:54.268Z,101290.42
2018-05-17T13:28:21.893Z,101286.89
2018-05-17T13:30:49.493Z,101289.66
2018-05-17T13:33:17.113Z,101283.67
2018-05-17T13:35:44.702Z,101285.67
2018-05-17T13:38:12.337Z,101284.73
2018-05-17T13:40:40.097Z,101289.98
2018-05-17T13:43:07.721Z,101284.53
2018-05-17T13:45:35.303Z,101291.33
2018-05-17T13:48:02.921Z,101284.53
2018-05-17T13:50:30.511Z,101285.57
2018-05-17T13:52:58.301Z,101278.11
2018-05-17T13:55:25.897Z,101287.17
2018-05-17T13:57:53.481Z,101278.36
2018-05-17T14:00:21.538Z,101278.78
2018-05-17T14:02:49.249Z,101290.42
2018-05-17T14:05:16.897Z,101273.24
2018-05-17T14:07:44.484Z,101283.38
2018-05-17T14:10:12.093Z,101283.45
2018-05-17T14:12:39.681Z,101280.97
2018-05-17T14:15:07.359Z,101279.45
2018-05-17T14:17:34.909Z,101278.61
2018-05-17T14:20:02.754Z,101274.13
2018-05-17T14:22:30.350Z,101281.16
2018-05-17T14:24:57.937Z,101276.30
2018-05-17T14:27:25.558Z,101280.44
2018-05-17T14:29:53.432Z,101288.20
2018-05-17T14:32:20.810Z,101286.77
2018-05-17T14:34:48.397Z,101285.34
2018-05-17T14:37:16.001Z,101292.59
2018-05-17T14:39:43.624Z,101293.63
2018-05-17T14:42:11.813Z,101281.35
2018-05-17T14:44:39.409Z,101278.63
2018-05-17T14:47:07.037Z,101288.13
2018-05-17T14:49:34.677Z,101282.30
2018-05-17T14:52:02.297Z,101288.94
2018-05-17T14:54:29.930Z,101292.88
2018-05-17T14:56:57.510Z,101283.19
2018-05-17T14:59:25.145Z,101280.98
2018-05-17T15:01:52.724Z,101282.30
2018-05-17T15:04:20.353Z,101281.22
2018-05-17T15:06:47.933Z,101283.48
2018-05-17T15:09:15.540Z,101281.41
2018-05-17T15:11:43.158Z,101281.22
2018-05-17T15:14:10.741Z,101280.73
2018-05-17T15:16:38.361Z,101275.72
2018-05-17T15:19:05.998Z,101289.59
2018-05-17T15:21:33.591Z,101285.02
2018-05-17T15:24:01.204Z,101277.50
2018-05-17T15:26:28.864Z,101281.80
2018-05-17T15:28:56.482Z,101288.76
2018-05-17T15:31:24.074Z,101279.06
2018-05-17T15:33:51.691Z,101273.05
2018-05-17T15:36:19.343Z,101279.20
2018-05-17T15:38:46.968Z,101283.11
2018-05-17T15:41:14.602Z,101284.91
2018-05-17T15:43:42.936Z,101284.64
2018-05-17T15:46:10.814Z,101274.30
2018-05-17T15:48:38.433Z,101276.61
2018-05-17T15:51:06.216Z,101285.06
2018-05-17T15:53:33.840Z,101281.92
2018-05-17T15:56:01.712Z,101284.36
2018-05-17T15:58:32.724Z,101282.34
2018-05-17T16:01:03.522Z,101283.80
2018-05-17T16:03:31.371Z,101284.86
2018-05-17T16:05:59.001Z,101284.25
2018-05-17T16:08:26.615Z,101280.63
2018-05-17T16:10:54.444Z,101290.38
2018-05-17T16:13:22.060Z,101283.55
2018-05-17T16:15:49.650Z,101282.80
2018-05-17T16:18:17.276Z,101279.67
2018-05-17T16:20:44.857Z,101280.44
2018-05-17T16:23:12.486Z,101276.64
2018-05-17T16:25:40.062Z,101274.95
2018-05-17T16:28:09.196Z,101276.52
2018-05-17T16:30:36.813Z,101275.58
2018-05-17T16:33:04.450Z,101272.33
2018-05-17T16:35:32.060Z,101271.77
2018-05-17T16:37:59.646Z,101278.03
2018-05-17T16:40:27.273Z,101273.22
2018-05-17T16:42:55.065Z,101269.38
2018-05-17T16:45:22.681Z,101262.81
2018-05-17T16:47:50.265Z,101269.44
2018-05-17T16:50:18.325Z,101261.03
2018-05-17T16:52:47.819Z,101260.08
2018-05-17T16:55:15.591Z,101260.19
2018-05-17T16:57:43.222Z,101265.69
2018-05-17T17:00:11.123Z,101269.67
2018-05-17T17:02:39.502Z,101264.55
2018-05-17T17:05:07.178Z,101264.16
2018-05-17T17:07:34.724Z,101267.17
2018-05-17T17:10:02.337Z,101256.48
2018-05-17T17:12:29.953Z,101268.73
2018-05-17T17:14:57.532Z,101269.92
2018-05-17T17:17:25.332Z,101264.64
2018-05-17T17:19:52.961Z,101270.48
2018-05-17T17:22:20.544Z,101265.76
2018-05-17T17:24:48.121Z,101275.16
2018-05-17T17:27:15.751Z,101273.20
2018-05-17T17:29:43.342Z,101256.72
2018-05-17T17:32:10.925Z,101257.61
2018-05-17T17:34:38.768Z,101258.61
2018-05-17T17:37:06.358Z,101259.01
2018-05-17T17:39:33.973Z,101257.07
2018-05-17T17:42:01.556Z,101268.30
2018-05-17T17:44:29.164Z,101267.78
2018-05-17T17:46:56.744Z,101265.31
2018-05-17T17:49:24.397Z,101266.29
2018-05-17T17:51:52.572Z,101267.78
2018-05-17T17:54:20.157Z,101271.08
2018-05-17T17:56:47.768Z,101275.70
2018-05-17T17:59:15.353Z,101271.05
2018-05-17T18:01:43.149Z,101283.04
2018-05-17T18:04:10.735Z,101287.10
2018-05-17T18:06:38.334Z,101293.68
2018-05-17T18:09:05.962Z,101294.27
2018-05-17T18:11:33.851Z,101293.25
2018-05-17T18:14:01.852Z,101304.52
2018-05-17T18:16:29.444Z,101296.56
2018-05-17T18:18:57.090Z,101304.82
2018-05-17T18:21:24.691Z,101299.44
2018-05-17T18:23:52.281Z,101306.97
2018-05-17T18:26:19.921Z,101305.53
2018-05-17T18:28:47.518Z,101303.03
2018-05-17T18:31:15.113Z,101314.22
2018-05-17T18:33:43.704Z,101305.11
2018-05-17T18:36:11.284Z,101307.53
2018-05-17T18:38:38.925Z,101310.28
2018-05-17T18:41:07.133Z,101313.95
2018-05-17T18:43:35.152Z,101315.09
2018-05-17T18:46:04.374Z,101314.37
2018-05-17T18:48:32.193Z,101319.33
2018-05-17T18:50:59.940Z,101318.37
2018-05-17T18:53:27.574Z,101322.89
2018-05-17T18:55:55.198Z,101323.39
2018-05-17T18:58:22.932Z,101320.95
2018-05-17T19:00:51.041Z,101325.47
2018-05-17T19:03:18.669Z,101326.06
2018-05-17T19:05:48.093Z,101322.58
2018-05-17T19:08:15.948Z,101320.88
2018-05-17T19:10:43.574Z,101320.53
2018-05-17T19:13:11.187Z,101321.09
2018-05-17T19:15:39.380Z,101325.95
2018-05-17T19:18:07.495Z,101323.16
2018-05-17T19:20:35.277Z,101322.83
2018-05-17T19:23:02.974Z,101320.36
2018-05-17T19:25:30.614Z,101327.59
2018-05-17T19:27:58.230Z,101327.63
2018-05-17T19:30:26.067Z,101328.07
2018-05-17T19:32:53.693Z,101326.19
2018-05-17T19:35:21.304Z,101325.34
2018-05-17T19:37:53.229Z,101327.12
2018-05-17T19:40:20.813Z,101325.05
2018-05-17T19:42:48.435Z,101341.92
2018-05-17T19:45:16.145Z,101336.86
2018-05-17T19:47:43.665Z,101339.59
2018-05-17T19:50:11.372Z,101349.28
2018-05-17T19:52:38.952Z,101344.83
2018-05-17T19:55:06.560Z,101340.88
2018-05-17T19:57:34.185Z,101345.93
2018-05-17T20:00:01.909Z,101343.75
2018-05-17T20:02:29.526Z,101344.70
2018-05-17T20:04:57.143Z,101347.38
2018-05-17T20:07:24.892Z,101346.40
2018-05-17T20:09:53.013Z,101339.69
2018-05-17T20:12:21.330Z,101344.74
2018-05-17T20:14:48.948Z,101347.70
2018-05-17T20:17:16.534Z,101346.70
2018-05-17T20:19:44.153Z,101350.88
2018-05-17T20:22:11.737Z,101354.63
2018-05-17T20:24:39.349Z,101354.73
2018-05-17T20:27:06.933Z,101354.77
2018-05-17T20:29:34.544Z,101355.69
2018-05-17T20:32:02.742Z,101351.48
2018-05-17T20:34:30.666Z,101353.56
2018-05-17T20:36:58.243Z,101356.88
2018-05-17T20:39:25.832Z,101359.03
2018-05-17T20:41:54.192Z,101352.43
2018-05-17T20:44:21.780Z,101355.36
2018-05-17T20:46:49.428Z,101357.80
2018-05-17T20:49:17.018Z,101355.03
2018-05-17T20:51:44.635Z,101355.69
2018-05-17T20:54:12.688Z,101352.94
2018-05-17T20:56:40.314Z,101348.58
2018-05-17T20:59:09.460Z,101349.42
2018-05-17T21:01:37.422Z,101348.58
2018-05-17T21:04:05.037Z,101349.39
2018-05-17T21:06:32.661Z,101347.36
2018-05-17T21:09:00.306Z,101339.38
2018-05-17T21:11:27.932Z,101345.77
2018-05-17T21:13:55.518Z,101348.31
2018-05-17T21:16:23.147Z,101339.47
2018-05-17T21:18:53.250Z,101340.16
2018-05-17T21:21:20.937Z,101344.02
2018-05-17T21:23:49.255Z,101345.84
2018-05-17T21:26:18.156Z,101345.84
2018-05-17T21:28:45.786Z,101346.73
2018-05-17T21:31:13.400Z,101352.70
2018-05-17T21:33:40.976Z,101355.97
2018-05-17T21:36:08.620Z,101354.95
2018-05-17T21:38:36.236Z,101348.59
2018-05-17T21:41:04.250Z,101348.64
2018-05-17T21:43:31.837Z,101343.52
2018-05-17T21:45:59.436Z,101351.88
2018-05-17T21:48:27.175Z,101345.72
2018-05-17T21:50:54.805Z,101349.33
2018-05-17T21:53:22.393Z,101349.17
2018-05-17T21:55:49.977Z,101348.16
2018-05-17T21:58:17.631Z,101345.69
2018-05-17T22:00:45.209Z,101348.02
2018-05-17T22:03:12.825Z,101340.97
2018-05-17T22:05:40.597Z,101345.37
2018-05-17T22:08:09.836Z,101352.96
2018-05-17T22:10:37.416Z,101349.53
2018-05-17T22:13:05.092Z,101343.67
2018-05-17T22:15:32.714Z,101348.68
2018-05-17T22:18:00.314Z,101342.63
2018-05-17T22:20:27.952Z,101338.92
2018-05-17T22:22:55.544Z,101338.94
2018-05-17T22:25:23.129Z,101348.84
2018-05-17T22:27:50.756Z,101339.88
2018-05-17T22:30:18.344Z,101337.00
2018-05-17T22:32:45.963Z,101340.31
2018-05-17T22:35:13.546Z,101332.97
2018-05-17T22:37:41.163Z,101336.21
2018-05-17T22:40:09.580Z,101328.03
2018-05-17T22:42:37.204Z,101327.02
2018-05-17T22:45:04.813Z,101321.25
2018-05-17T22:47:32.425Z,101327.13
2018-05-17T22:50:00.016Z,101332.86
2018-05-17T22:52:27.782Z,101329.09
2018-05-17T22:54:55.406Z,101321.66
2018-05-17T22:57:34.769Z,101326.41
2018-05-17T23:00:03.068Z,101322.78
2018-05-17T23:02:31.303Z,101319.55
2018-05-17T23:04:59.470Z,101317.39
2018-05-17T23:07:27.241Z,101317.86
2018-05-17T23:09:54.877Z,101326.46
2018-05-17T23:12:22.461Z,101327.81
2018-05-17T23:14:50.125Z,101322.56
2018-05-17T23:17:17.713Z,101331.35
2018-05-17T23:19:45.349Z,101322.59
2018-05-17T23:22:24.677Z,101323.09
2018-05-17T23:24:52.308Z,101318.81
2018-05-17T23:27:19.931Z,101322.91
2018-05-17T23:29:47.517Z,101329.63
2018-05-17T23:32:15.104Z,101330.56
2018-05-17T23:34:42.725Z,101327.09
2018-05-17T23:37:21.792Z,101326.70
2018-05-17T23:39:49.373Z,101330.52
2018-05-17T23:42:17.000Z,101325.57
2018-05-17T23:44:44.645Z,101322.55
2018-05-17T23:47:12.229Z,101329.43
2018-05-17T23:49:40.101Z,101320.69
2018-05-17T23:52:07.717Z,101327.99
2018-05-17T23:54:35.333Z,101323.75
2018-05-17T23:57:02.911Z,101315.69
2018-05-17T23:59:30.533Z,101317.17
